intimcity.nl alexa rank chart, intimcity.nl alexa rank daily changes

intimcity.nl alexa rank chart, intimcity.nl alexa rank daily changes

intimcity.nl
Actual rank:
28 503

RANK HISTORY

Date Rank Diff
2019/03/21 28 503 +6
2019/03/20 28 497 +2 157
2019/03/19 26 340 +2 536
2019/03/18 23 804 -11 616
2019/03/17 35 420 +5 494
2019/03/16 29 926 -4 507
2019/03/15 34 433 +10 509
2019/03/14 23 924 -5 656
2019/03/13 29 580 -86
2019/03/12 29 666 +9 540
2019/03/11 20 126 -6 643
2019/03/10 26 769 -8 932
2019/03/09 35 701 +3 200
2019/03/08 32 501 -2 362
2019/03/07 34 863 -2 932
2019/03/06 37 795 +8 025
2019/03/05 29 770 +2 467
2019/03/04 27 303 +2 977
2019/03/03 24 326 -18 064
2019/03/02 42 390 +13 023
2019/03/01 29 367 +1 626
2019/02/28 27 741 -7 233
2019/02/27 34 974 +5 650
2019/02/26 29 324 +4 558
2019/02/25 24 766 -1 954
2019/02/24 26 720 -6 646
2019/02/22 33 366 -12 615
2019/02/21 45 981 +2 507
2019/02/20 43 474 +13 467
2019/02/19 30 007 +9 109
2019/02/18 20 898 -14 930
2019/02/17 35 828 +8 454
2019/02/16 27 374 -986
2019/02/15 28 360 +3 406
2019/02/14 24 954 -2 893
2019/02/13 27 847 +4 693
2019/02/12 23 154 +419
2019/02/11 22 735 -12 753
2019/02/10 35 488 +6 170
2019/02/09 29 318 -5 990
2019/02/08 35 308 -5 654
2019/02/07 40 962 +16 623
2019/02/06 24 339 +3 381
2019/02/05 20 958 -5 316
2019/02/04 26 274 +1 623
2019/02/03 24 651 -6 740
2019/02/02 31 391 -11 221
2019/02/01 42 612 +12 387
2019/01/31 30 225 -7 347
2019/01/30 37 572 +1 823
2019/01/29 35 749 +2 712
2019/01/28 33 037 -8 975
2019/01/27 42 012 -3 430
2019/01/26 45 442 +1 129
2019/01/25 44 313 -6 655
2019/01/24 50 968 +12 926
2019/01/23 38 042 +5 132
2019/01/22 32 910 +2 896
2019/01/21 30 014 -4 567
2019/01/20 34 581

WIDGET FOR YOUR SITE

DOMAINS WITH THE NEAREST RANK

Domain Rank
smartbox.com 28 498
muahangnhanh.live 28 499
bancokeve.ao 28 500
isptec.co.ao 28 501
ashleyrnadison.com 28 502
intimcity.nl 28 503
humankinetics.com 28 504
ttdsevaonline.com 28 505
pornosalope.com 28 506
degiro.nl 28 507
tvtv.de 28 508

DOMAINS WITH THE NEAREST RANK BY TLD .nl

Domain Rank
ziggo.nl 25 784
xmissy.nl 26 383
surfconext.nl 26 538
geenstijl.nl 27 000
expert.nl 27 828
intimcity.nl 28 503
degiro.nl 28 507
nzbindex.nl 28 518
ticketmaster.nl 28 822
tmgonlinemedia.nl 28 849
stemwijzer.nl 29 680